sensor_id;sensor_type;location;lat;lon;timestamp;temperature;humidity
30385;DHT22;17181;51.002;4.096;2023-06-10T00:00:41;22.90;62.10
30385;DHT22;17181;51.002;4.096;2023-06-10T00:03:08;22.80;62.30
30385;DHT22;17181;51.002;4.096;2023-06-10T00:05:35;22.80;62.50
30385;DHT22;17181;51.002;4.096;2023-06-10T00:08:02;22.70;62.70
30385;DHT22;17181;51.002;4.096;2023-06-10T00:10:34;22.70;62.90
30385;DHT22;17181;51.002;4.096;2023-06-10T00:13:04;22.70;63.00
30385;DHT22;17181;51.002;4.096;2023-06-10T00:15:30;22.70;63.00
30385;DHT22;17181;51.002;4.096;2023-06-10T00:17:57;22.70;63.10
30385;DHT22;17181;51.002;4.096;2023-06-10T00:20:23;22.60;63.10
30385;DHT22;17181;51.002;4.096;2023-06-10T00:22:52;22.60;63.20
30385;DHT22;17181;51.002;4.096;2023-06-10T00:25:18;22.60;63.50
30385;DHT22;17181;51.002;4.096;2023-06-10T00:27:44;22.50;63.60
30385;DHT22;17181;51.002;4.096;2023-06-10T00:30:10;22.50;63.80
30385;DHT22;17181;51.002;4.096;2023-06-10T00:32:37;22.50;63.90
30385;DHT22;17181;51.002;4.096;2023-06-10T00:35:04;22.40;63.90
30385;DHT22;17181;51.002;4.096;2023-06-10T00:37:31;22.40;64.10
30385;DHT22;17181;51.002;4.096;2023-06-10T00:39:57;22.40;64.30
30385;DHT22;17181;51.002;4.096;2023-06-10T00:42:24;22.30;64.30
30385;DHT22;17181;51.002;4.096;2023-06-10T00:44:51;22.40;64.50
30385;DHT22;17181;51.002;4.096;2023-06-10T00:47:17;22.30;64.50
30385;DHT22;17181;51.002;4.096;2023-06-10T00:49:44;22.30;64.60
30385;DHT22;17181;51.002;4.096;2023-06-10T00:52:11;22.30;64.70
30385;DHT22;17181;51.002;4.096;2023-06-10T00:54:38;22.20;64.80
30385;DHT22;17181;51.002;4.096;2023-06-10T00:57:05;22.20;64.80
30385;DHT22;17181;51.002;4.096;2023-06-10T00:59:34;22.10;64.90
30385;DHT22;17181;51.002;4.096;2023-06-10T01:02:01;22.10;64.90
30385;DHT22;17181;51.002;4.096;2023-06-10T01:04:29;22.10;65.10
30385;DHT22;17181;51.002;4.096;2023-06-10T01:07:23;22.00;65.30
30385;DHT22;17181;51.002;4.096;2023-06-10T01:09:56;22.00;65.30
30385;DHT22;17181;51.002;4.096;2023-06-10T01:13:03;21.90;65.30
30385;DHT22;17181;51.002;4.096;2023-06-10T01:15:33;21.80;65.40
30385;DHT22;17181;51.002;4.096;2023-06-10T01:18:04;21.80;65.30
30385;DHT22;17181;51.002;4.096;2023-06-10T01:20:35;21.80;65.60
30385;DHT22;17181;51.002;4.096;2023-06-10T01:23:03;21.70;65.60
30385;DHT22;17181;51.002;4.096;2023-06-10T01:25:30;21.70;65.90
30385;DHT22;17181;51.002;4.096;2023-06-10T01:33:36;21.50;66.00
30385;DHT22;17181;51.002;4.096;2023-06-10T01:36:03;21.40;66.30
30385;DHT22;17181;51.002;4.096;2023-06-10T01:38:36;21.40;66.60
30385;DHT22;17181;51.002;4.096;2023-06-10T01:41:03;21.40;66.80
30385;DHT22;17181;51.002;4.096;2023-06-10T01:43:37;21.30;66.80
30385;DHT22;17181;51.002;4.096;2023-06-10T01:46:02;21.30;67.10
30385;DHT22;17181;51.002;4.096;2023-06-10T01:48:29;21.30;67.40
30385;DHT22;17181;51.002;4.096;2023-06-10T01:50:55;21.30;67.50
30385;DHT22;17181;51.002;4.096;2023-06-10T01:53:24;21.30;67.70
30385;DHT22;17181;51.002;4.096;2023-06-10T01:55:50;21.20;68.50
30385;DHT22;17181;51.002;4.096;2023-06-10T01:58:16;21.20;68.00
30385;DHT22;17181;51.002;4.096;2023-06-10T02:00:42;21.20;68.10
30385;DHT22;17181;51.002;4.096;2023-06-10T02:03:08;21.20;68.20
30385;DHT22;17181;51.002;4.096;2023-06-10T02:05:35;21.20;68.30
30385;DHT22;17181;51.002;4.096;2023-06-10T02:08:01;21.20;68.50
30385;DHT22;17181;51.002;4.096;2023-06-10T02:10:27;21.20;68.60
30385;DHT22;17181;51.002;4.096;2023-06-10T02:12:53;21.20;68.70
30385;DHT22;17181;51.002;4.096;2023-06-10T02:15:19;21.10;68.70
30385;DHT22;17181;51.002;4.096;2023-06-10T02:17:46;21.10;68.80
30385;DHT22;17181;51.002;4.096;2023-06-10T02:20:12;21.10;68.90
30385;DHT22;17181;51.002;4.096;2023-06-10T02:22:39;21.10;69.10
30385;DHT22;17181;51.002;4.096;2023-06-10T02:25:07;21.00;69.10
30385;DHT22;17181;51.002;4.096;2023-06-10T02:27:33;21.00;69.30
30385;DHT22;17181;51.002;4.096;2023-06-10T02:29:59;20.90;69.50
30385;DHT22;17181;51.002;4.096;2023-06-10T02:32:26;20.90;69.50
30385;DHT22;17181;51.002;4.096;2023-06-10T02:34:52;20.90;69.70
30385;DHT22;17181;51.002;4.096;2023-06-10T02:37:21;20.80;69.70
30385;DHT22;17181;51.002;4.096;2023-06-10T02:39:47;20.80;69.90
30385;DHT22;17181;51.002;4.096;2023-06-10T02:42:13;20.80;70.10
30385;DHT22;17181;51.002;4.096;2023-06-10T02:44:39;20.70;70.20
30385;DHT22;17181;51.002;4.096;2023-06-10T02:47:07;20.70;70.30
30385;DHT22;17181;51.002;4.096;2023-06-10T02:49:35;20.70;70.50
30385;DHT22;17181;51.002;4.096;2023-06-10T02:52:01;20.60;70.70
30385;DHT22;17181;51.002;4.096;2023-06-10T02:54:27;20.60;70.90
30385;DHT22;17181;51.002;4.096;2023-06-10T02:56:55;20.50;70.90
30385;DHT22;17181;51.002;4.096;2023-06-10T02:59:26;20.60;71.10
30385;DHT22;17181;51.002;4.096;2023-06-10T03:01:54;20.50;71.10
30385;DHT22;17181;51.002;4.096;2023-06-10T03:04:22;20.50;71.20
30385;DHT22;17181;51.002;4.096;2023-06-10T03:06:57;20.50;71.30
30385;DHT22;17181;51.002;4.096;2023-06-10T03:09:28;20.40;71.40
30385;DHT22;17181;51.002;4.096;2023-06-10T03:11:57;20.40;71.60
30385;DHT22;17181;51.002;4.096;2023-06-10T03:14:25;20.30;71.80
30385;DHT22;17181;51.002;4.096;2023-06-10T03:16:51;20.30;72.00
30385;DHT22;17181;51.002;4.096;2023-06-10T03:19:20;20.20;72.10
30385;DHT22;17181;51.002;4.096;2023-06-10T03:21:59;20.20;72.30
30385;DHT22;17181;51.002;4.096;2023-06-10T03:24:35;20.20;72.70
30385;DHT22;17181;51.002;4.096;2023-06-10T03:27:03;20.10;72.80
30385;DHT22;17181;51.002;4.096;2023-06-10T03:29:31;20.10;73.00
30385;DHT22;17181;51.002;4.096;2023-06-10T03:31:57;20.10;73.10
30385;DHT22;17181;51.002;4.096;2023-06-10T03:34:24;20.10;73.30
30385;DHT22;17181;51.002;4.096;2023-06-10T03:36:50;20.10;73.70
30385;DHT22;17181;51.002;4.096;2023-06-10T03:39:16;20.10;73.90
30385;DHT22;17181;51.002;4.096;2023-06-10T03:41:42;20.20;74.10
30385;DHT22;17181;51.002;4.096;2023-06-10T03:44:09;20.20;74.20
30385;DHT22;17181;51.002;4.096;2023-06-10T03:46:35;20.20;74.30
30385;DHT22;17181;51.002;4.096;2023-06-10T03:49:02;20.20;74.30
30385;DHT22;17181;51.002;4.096;2023-06-10T03:51:29;20.20;74.30
30385;DHT22;17181;51.002;4.096;2023-06-10T03:53:55;20.20;74.30
30385;DHT22;17181;51.002;4.096;2023-06-10T03:56:21;20.20;74.40
30385;DHT22;17181;51.002;4.096;2023-06-10T03:58:48;20.20;74.60
30385;DHT22;17181;51.002;4.096;2023-06-10T04:01:14;20.20;74.70
30385;DHT22;17181;51.002;4.096;2023-06-10T04:03:41;20.30;74.80
30385;DHT22;17181;51.002;4.096;2023-06-10T04:06:07;20.20;75.00
30385;DHT22;17181;51.002;4.096;2023-06-10T04:08:33;20.30;75.30
30385;DHT22;17181;51.002;4.096;2023-06-10T04:11:00;20.30;75.60
30385;DHT22;17181;51.002;4.096;2023-06-10T04:13:28;20.50;75.60
30385;DHT22;17181;51.002;4.096;2023-06-10T04:15:57;20.40;75.60
30385;DHT22;17181;51.002;4.096;2023-06-10T04:18:24;20.40;75.60
30385;DHT22;17181;51.002;4.096;2023-06-10T04:20:54;20.40;75.50
30385;DHT22;17181;51.002;4.096;2023-06-10T04:23:21;20.40;75.50
30385;DHT22;17181;51.002;4.096;2023-06-10T04:25:55;20.50;75.80
30385;DHT22;17181;51.002;4.096;2023-06-10T04:28:20;20.50;75.70
30385;DHT22;17181;51.002;4.096;2023-06-10T04:30:46;20.50;75.80
30385;DHT22;17181;51.002;4.096;2023-06-10T04:33:13;20.50;76.20
30385;DHT22;17181;51.002;4.096;2023-06-10T04:35:40;20.70;76.30
30385;DHT22;17181;51.002;4.096;2023-06-10T04:38:07;20.70;76.20
30385;DHT22;17181;51.002;4.096;2023-06-10T04:40:33;20.70;76.30
30385;DHT22;17181;51.002;4.096;2023-06-10T04:43:00;20.70;76.20
30385;DHT22;17181;51.002;4.096;2023-06-10T04:45:26;20.80;76.20
30385;DHT22;17181;51.002;4.096;2023-06-10T04:47:52;20.90;76.30
30385;DHT22;17181;51.002;4.096;2023-06-10T04:50:17;20.90;76.30
30385;DHT22;17181;51.002;4.096;2023-06-10T04:52:43;21.00;77.10
30385;DHT22;17181;51.002;4.096;2023-06-10T04:55:12;21.10;76.40
30385;DHT22;17181;51.002;4.096;2023-06-10T04:57:38;21.20;76.50
30385;DHT22;17181;51.002;4.096;2023-06-10T05:00:04;21.20;76.40
30385;DHT22;17181;51.002;4.096;2023-06-10T05:02:31;21.30;76.50
30385;DHT22;17181;51.002;4.096;2023-06-10T05:04:57;21.40;76.40
30385;DHT22;17181;51.002;4.096;2023-06-10T05:07:23;21.50;76.30
30385;DHT22;17181;51.002;4.096;2023-06-10T05:09:49;21.50;76.20
30385;DHT22;17181;51.002;4.096;2023-06-10T05:12:15;21.70;77.00
30385;DHT22;17181;51.002;4.096;2023-06-10T05:14:40;21.70;76.20
30385;DHT22;17181;51.002;4.096;2023-06-10T05:17:06;21.80;76.20
30385;DHT22;17181;51.002;4.096;2023-06-10T05:19:32;21.90;76.20
30385;DHT22;17181;51.002;4.096;2023-06-10T05:21:58;21.90;76.00
30385;DHT22;17181;51.002;4.096;2023-06-10T05:24:24;22.00;76.00
30385;DHT22;17181;51.002;4.096;2023-06-10T05:26:50;22.20;76.00
30385;DHT22;17181;51.002;4.096;2023-06-10T05:29:16;22.20;75.90
30385;DHT22;17181;51.002;4.096;2023-06-10T05:31:42;22.30;75.80
30385;DHT22;17181;51.002;4.096;2023-06-10T05:34:08;22.40;75.60
30385;DHT22;17181;51.002;4.096;2023-06-10T05:36:34;22.40;75.40
30385;DHT22;17181;51.002;4.096;2023-06-10T05:38:59;22.60;75.40
30385;DHT22;17181;51.002;4.096;2023-06-10T05:41:26;22.60;75.20
30385;DHT22;17181;51.002;4.096;2023-06-10T05:43:52;22.70;75.10
30385;DHT22;17181;51.002;4.096;2023-06-10T05:46:18;22.80;75.00
30385;DHT22;17181;51.002;4.096;2023-06-10T05:48:45;22.90;74.80
30385;DHT22;17181;51.002;4.096;2023-06-10T05:51:18;23.00;74.90
30385;DHT22;17181;51.002;4.096;2023-06-10T05:53:54;23.10;74.50
30385;DHT22;17181;51.002;4.096;2023-06-10T05:59:05;23.20;74.20
30385;DHT22;17181;51.002;4.096;2023-06-10T06:01:54;23.30;74.10
30385;DHT22;17181;51.002;4.096;2023-06-10T06:04:20;23.40;74.20
30385;DHT22;17181;51.002;4.096;2023-06-10T06:06:49;23.60;74.00
30385;DHT22;17181;51.002;4.096;2023-06-10T07:04:07;25.10;69.40
30385;DHT22;17181;51.002;4.096;2023-06-10T07:06:37;25.20;69.40
30385;DHT22;17181;51.002;4.096;2023-06-10T07:17:42;25.60;68.30
30385;DHT22;17181;51.002;4.096;2023-06-10T07:50:39;26.60;66.00
30385;DHT22;17181;51.002;4.096;2023-06-10T07:53:05;26.70;65.90
30385;DHT22;17181;51.002;4.096;2023-06-10T07:55:31;26.80;66.00
30385;DHT22;17181;51.002;4.096;2023-06-10T07:57:57;26.90;65.80
30385;DHT22;17181;51.002;4.096;2023-06-10T08:00:24;27.00;65.70
30385;DHT22;17181;51.002;4.096;2023-06-10T08:02:49;27.10;65.40
30385;DHT22;17181;51.002;4.096;2023-06-10T08:05:17;27.20;64.90
30385;DHT22;17181;51.002;4.096;2023-06-10T08:07:44;27.20;64.70
30385;DHT22;17181;51.002;4.096;2023-06-10T08:10:10;27.30;64.50
30385;DHT22;17181;51.002;4.096;2023-06-10T08:12:36;27.30;64.50
30385;DHT22;17181;51.002;4.096;2023-06-10T08:15:03;27.40;63.90
30385;DHT22;17181;51.002;4.096;2023-06-10T08:17:31;27.50;63.60
30385;DHT22;17181;51.002;4.096;2023-06-10T08:20:03;27.50;63.30
30385;DHT22;17181;51.002;4.096;2023-06-10T08:22:30;27.60;62.90
30385;DHT22;17181;51.002;4.096;2023-06-10T08:24:55;27.70;63.10
30385;DHT22;17181;51.002;4.096;2023-06-10T08:27:22;27.80;62.90
30385;DHT22;17181;51.002;4.096;2023-06-10T08:29:47;27.80;62.70
30385;DHT22;17181;51.002;4.096;2023-06-10T08:32:13;27.90;62.50
30385;DHT22;17181;51.002;4.096;2023-06-10T08:34:39;28.10;62.50
30385;DHT22;17181;51.002;4.096;2023-06-10T08:40:01;28.10;61.30
30385;DHT22;17181;51.002;4.096;2023-06-10T08:43:10;28.20;61.10
30385;DHT22;17181;51.002;4.096;2023-06-10T08:46:09;28.40;60.90
30385;DHT22;17181;51.002;4.096;2023-06-10T08:51:59;28.60;60.70
30385;DHT22;17181;51.002;4.096;2023-06-10T08:54:31;28.50;60.00
30385;DHT22;17181;51.002;4.096;2023-06-10T08:57:05;28.60;60.20
30385;DHT22;17181;51.002;4.096;2023-06-10T08:59:32;28.60;59.90
30385;DHT22;17181;51.002;4.096;2023-06-10T09:01:58;28.70;59.90
30385;DHT22;17181;51.002;4.096;2023-06-10T09:04:24;28.80;59.80
30385;DHT22;17181;51.002;4.096;2023-06-10T09:06:51;28.90;59.70
30385;DHT22;17181;51.002;4.096;2023-06-10T09:09:18;29.00;59.30
30385;DHT22;17181;51.002;4.096;2023-06-10T09:11:45;29.00;58.90
30385;DHT22;17181;51.002;4.096;2023-06-10T09:14:11;29.10;58.90
30385;DHT22;17181;51.002;4.096;2023-06-10T09:16:38;29.10;58.70
30385;DHT22;17181;51.002;4.096;2023-06-10T09:19:05;29.30;58.50
30385;DHT22;17181;51.002;4.096;2023-06-10T09:21:34;29.30;58.20
30385;DHT22;17181;51.002;4.096;2023-06-10T09:24:01;29.40;57.80
30385;DHT22;17181;51.002;4.096;2023-06-10T09:26:30;29.60;57.90
30385;DHT22;17181;51.002;4.096;2023-06-10T09:29:04;29.50;57.70
30385;DHT22;17181;51.002;4.096;2023-06-10T09:31:31;29.50;57.20
30385;DHT22;17181;51.002;4.096;2023-06-10T09:36:36;29.70;56.90
30385;DHT22;17181;51.002;4.096;2023-06-10T09:39:03;29.80;56.80
30385;DHT22;17181;51.002;4.096;2023-06-10T09:41:35;29.80;56.70
30385;DHT22;17181;51.002;4.096;2023-06-10T09:44:02;29.90;56.50
30385;DHT22;17181;51.002;4.096;2023-06-10T09:46:33;29.90;56.40
30385;DHT22;17181;51.002;4.096;2023-06-10T09:48:59;29.90;56.00
30385;DHT22;17181;51.002;4.096;2023-06-10T09:51:28;30.10;55.90
30385;DHT22;17181;51.002;4.096;2023-06-10T10:48:53;31.20;51.20
30385;DHT22;17181;51.002;4.096;2023-06-10T10:51:23;31.20;50.90
30385;DHT22;17181;51.002;4.096;2023-06-10T10:54:10;31.40;50.70
30385;DHT22;17181;51.002;4.096;2023-06-10T10:59:42;31.50;49.50
30385;DHT22;17181;51.002;4.096;2023-06-10T11:05:17;31.60;47.90
30385;DHT22;17181;51.002;4.096;2023-06-10T11:07:54;31.50;47.20
30385;DHT22;17181;51.002;4.096;2023-06-10T11:10:34;31.60;47.00
30385;DHT22;17181;51.002;4.096;2023-06-10T11:13:14;31.70;47.00
30385;DHT22;17181;51.002;4.096;2023-06-10T11:15:50;31.70;46.90
30385;DHT22;17181;51.002;4.096;2023-06-10T11:32:20;32.20;45.60
30385;DHT22;17181;51.002;4.096;2023-06-10T11:34:52;32.30;44.90
30385;DHT22;17181;51.002;4.096;2023-06-10T11:37:18;32.30;44.40
30385;DHT22;17181;51.002;4.096;2023-06-10T11:39:45;32.30;44.90
30385;DHT22;17181;51.002;4.096;2023-06-10T11:42:11;32.40;44.90
30385;DHT22;17181;51.002;4.096;2023-06-10T11:44:56;32.40;44.40
30385;DHT22;17181;51.002;4.096;2023-06-10T11:47:28;32.60;43.90
30385;DHT22;17181;51.002;4.096;2023-06-10T11:49:58;32.70;44.30
30385;DHT22;17181;51.002;4.096;2023-06-10T11:52:30;32.70;43.80
30385;DHT22;17181;51.002;4.096;2023-06-10T11:55:03;32.80;43.20
30385;DHT22;17181;51.002;4.096;2023-06-10T11:57:34;32.90;43.40
30385;DHT22;17181;51.002;4.096;2023-06-10T12:00:07;33.00;43.60
30385;DHT22;17181;51.002;4.096;2023-06-10T12:02:39;33.10;43.50
30385;DHT22;17181;51.002;4.096;2023-06-10T12:05:15;33.10;43.20
30385;DHT22;17181;51.002;4.096;2023-06-10T12:07:42;33.20;43.20
30385;DHT22;17181;51.002;4.096;2023-06-10T12:10:08;33.10;43.10
30385;DHT22;17181;51.002;4.096;2023-06-10T12:12:38;33.30;42.80
30385;DHT22;17181;51.002;4.096;2023-06-10T12:15:05;33.20;42.40
30385;DHT22;17181;51.002;4.096;2023-06-10T12:19:59;33.30;42.00
30385;DHT22;17181;51.002;4.096;2023-06-10T12:22:25;33.40;42.00
30385;DHT22;17181;51.002;4.096;2023-06-10T12:25:03;33.30;42.30
30385;DHT22;17181;51.002;4.096;2023-06-10T12:27:31;33.40;42.10
30385;DHT22;17181;51.002;4.096;2023-06-10T12:30:06;33.40;42.20
30385;DHT22;17181;51.002;4.096;2023-06-10T12:32:37;33.60;42.20
30385;DHT22;17181;51.002;4.096;2023-06-10T12:35:04;33.70;42.00
30385;DHT22;17181;51.002;4.096;2023-06-10T12:37:30;33.70;41.90
30385;DHT22;17181;51.002;4.096;2023-06-10T12:40:00;33.80;41.80
30385;DHT22;17181;51.002;4.096;2023-06-10T12:42:27;33.80;41.40
30385;DHT22;17181;51.002;4.096;2023-06-10T12:44:56;33.90;41.40
30385;DHT22;17181;51.002;4.096;2023-06-10T12:47:36;34.00;41.10
30385;DHT22;17181;51.002;4.096;2023-06-10T12:50:04;34.10;40.90
30385;DHT22;17181;51.002;4.096;2023-06-10T12:52:30;34.20;40.90
30385;DHT22;17181;51.002;4.096;2023-06-10T12:54:56;34.30;40.60
30385;DHT22;17181;51.002;4.096;2023-06-10T12:57:22;34.30;40.50
30385;DHT22;17181;51.002;4.096;2023-06-10T12:59:48;34.60;40.50
30385;DHT22;17181;51.002;4.096;2023-06-10T13:02:21;34.60;40.50
30385;DHT22;17181;51.002;4.096;2023-06-10T13:04:50;34.70;40.60
30385;DHT22;17181;51.002;4.096;2023-06-10T13:07:16;34.90;41.00
30385;DHT22;17181;51.002;4.096;2023-06-10T13:09:42;35.60;41.10
30385;DHT22;17181;51.002;4.096;2023-06-10T13:12:14;36.50;40.70
30385;DHT22;17181;51.002;4.096;2023-06-10T13:14:40;37.30;40.00
30385;DHT22;17181;51.002;4.096;2023-06-10T13:17:05;37.90;36.90
30385;DHT22;17181;51.002;4.096;2023-06-10T13:19:32;37.90;36.40
30385;DHT22;17181;51.002;4.096;2023-06-10T13:21:59;37.90;36.40
30385;DHT22;17181;51.002;4.096;2023-06-10T13:24:25;37.80;36.60
30385;DHT22;17181;51.002;4.096;2023-06-10T13:26:52;38.10;36.50
30385;DHT22;17181;51.002;4.096;2023-06-10T13:29:18;38.40;36.70
30385;DHT22;17181;51.002;4.096;2023-06-10T13:31:44;38.80;36.50
30385;DHT22;17181;51.002;4.096;2023-06-10T13:34:10;39.40;36.10
30385;DHT22;17181;51.002;4.096;2023-06-10T13:36:36;39.90;35.80
30385;DHT22;17181;51.002;4.096;2023-06-10T13:39:02;40.40;35.40
30385;DHT22;17181;51.002;4.096;2023-06-10T13:41:28;40.80;34.60
30385;DHT22;17181;51.002;4.096;2023-06-10T13:43:54;41.20;34.00
30385;DHT22;17181;51.002;4.096;2023-06-10T13:46:21;41.30;33.50
30385;DHT22;17181;51.002;4.096;2023-06-10T13:48:49;41.30;33.20
30385;DHT22;17181;51.002;4.096;2023-06-10T13:51:19;41.20;33.30
30385;DHT22;17181;51.002;4.096;2023-06-10T13:53:48;41.40;33.20
30385;DHT22;17181;51.002;4.096;2023-06-10T13:56:15;41.60;33.10
30385;DHT22;17181;51.002;4.096;2023-06-10T13:58:42;41.90;33.00
30385;DHT22;17181;51.002;4.096;2023-06-10T14:01:12;42.50;32.90
30385;DHT22;17181;51.002;4.096;2023-06-10T14:03:38;42.90;30.80
30385;DHT22;17181;51.002;4.096;2023-06-10T14:06:04;43.00;30.70
30385;DHT22;17181;51.002;4.096;2023-06-10T14:08:30;43.00;30.70
30385;DHT22;17181;51.002;4.096;2023-06-10T14:10:56;43.20;30.50
30385;DHT22;17181;51.002;4.096;2023-06-10T14:13:21;43.60;30.60
30385;DHT22;17181;51.002;4.096;2023-06-10T14:15:47;43.90;30.30
30385;DHT22;17181;51.002;4.096;2023-06-10T14:18:13;44.20;30.10
30385;DHT22;17181;51.002;4.096;2023-06-10T14:20:39;44.60;29.90
30385;DHT22;17181;51.002;4.096;2023-06-10T14:23:05;44.80;29.40
30385;DHT22;17181;51.002;4.096;2023-06-10T14:25:31;44.90;29.30
30385;DHT22;17181;51.002;4.096;2023-06-10T14:27:57;44.90;28.90
30385;DHT22;17181;51.002;4.096;2023-06-10T14:30:23;45.00;29.00
30385;DHT22;17181;51.002;4.096;2023-06-10T14:32:49;45.00;28.50
30385;DHT22;17181;51.002;4.096;2023-06-10T14:35:19;44.90;28.50
30385;DHT22;17181;51.002;4.096;2023-06-10T14:37:46;44.60;28.40
30385;DHT22;17181;51.002;4.096;2023-06-10T14:40:12;44.90;28.80
30385;DHT22;17181;51.002;4.096;2023-06-10T14:42:38;45.20;28.80
30385;DHT22;17181;51.002;4.096;2023-06-10T14:45:05;45.50;28.70
30385;DHT22;17181;51.002;4.096;2023-06-10T14:47:31;45.80;28.40
30385;DHT22;17181;51.002;4.096;2023-06-10T14:49:57;46.10;28.20
30385;DHT22;17181;51.002;4.096;2023-06-10T14:52:23;46.30;28.00
30385;DHT22;17181;51.002;4.096;2023-06-10T14:54:49;46.40;27.50
30385;DHT22;17181;51.002;4.096;2023-06-10T14:57:15;46.40;26.90
30385;DHT22;17181;51.002;4.096;2023-06-10T14:59:40;46.20;27.00
30385;DHT22;17181;51.002;4.096;2023-06-10T15:02:06;45.90;27.10
30385;DHT22;17181;51.002;4.096;2023-06-10T15:04:32;45.80;27.20
30385;DHT22;17181;51.002;4.096;2023-06-10T15:06:59;45.60;27.10
30385;DHT22;17181;51.002;4.096;2023-06-10T15:09:25;45.50;27.10
30385;DHT22;17181;51.002;4.096;2023-06-10T15:11:51;45.10;27.00
30385;DHT22;17181;51.002;4.096;2023-06-10T15:14:17;44.70;27.10
30385;DHT22;17181;51.002;4.096;2023-06-10T15:16:43;44.30;27.20
30385;DHT22;17181;51.002;4.096;2023-06-10T15:19:09;43.90;27.30
30385;DHT22;17181;51.002;4.096;2023-06-10T15:21:37;43.50;27.40
30385;DHT22;17181;51.002;4.096;2023-06-10T15:24:03;43.10;27.60
30385;DHT22;17181;51.002;4.096;2023-06-10T15:26:29;42.80;27.50
30385;DHT22;17181;51.002;4.096;2023-06-10T15:28:55;42.40;27.80
30385;DHT22;17181;51.002;4.096;2023-06-10T15:31:21;42.10;27.90
